sensor_id;sensor_type;location;lat;lon;timestamp;pressure;altitude;pressure_sealevel;temperature;humidity
48942;BME280;35340;52.378;4.648;2022-10-15T00:00:43;100744.78;;;17.33;61.94
48942;BME280;35340;52.378;4.648;2022-10-15T00:03:09;100747.41;;;17.33;61.70
48942;BME280;35340;52.378;4.648;2022-10-15T00:05:37;100746.53;;;17.32;62.11
48942;BME280;35340;52.378;4.648;2022-10-15T00:08:03;100747.41;;;17.33;61.89
48942;BME280;35340;52.378;4.648;2022-10-15T00:10:28;100740.44;;;17.33;61.95
48942;BME280;35340;52.378;4.648;2022-10-15T00:12:54;100742.19;;;17.33;61.94
48942;BME280;35340;52.378;4.648;2022-10-15T00:15:19;100738.75;;;17.32;61.99
48942;BME280;35340;52.378;4.648;2022-10-15T00:17:44;100742.22;;;17.31;61.88
48942;BME280;35340;52.378;4.648;2022-10-15T00:20:10;100739.59;;;17.33;62.03
48942;BME280;35340;52.378;4.648;2022-10-15T00:22:36;100730.94;;;17.32;61.88
48942;BME280;35340;52.378;4.648;2022-10-15T00:25:03;100732.69;;;17.32;61.95
48942;BME280;35340;52.378;4.648;2022-10-15T00:27:28;100729.19;;;17.33;61.64
48942;BME280;35340;52.378;4.648;2022-10-15T00:29:53;100720.53;;;17.31;62.03
48942;BME280;35340;52.378;4.648;2022-10-15T00:32:19;100724.88;;;17.30;61.82
48942;BME280;35340;52.378;4.648;2022-10-15T00:34:45;100730.09;;;17.32;61.80
48942;BME280;35340;52.378;4.648;2022-10-15T00:37:10;100732.69;;;17.30;61.88
48942;BME280;35340;52.378;4.648;2022-10-15T00:39:36;100731.81;;;17.31;61.89
48942;BME280;35340;52.378;4.648;2022-10-15T00:42:02;100730.09;;;17.32;61.84
48942;BME280;35340;52.378;4.648;2022-10-15T00:46:57;100731.81;;;17.31;61.94
48942;BME280;35340;52.378;4.648;2022-10-15T00:49:36;100728.34;;;17.31;61.87
48942;BME280;35340;52.378;4.648;2022-10-15T00:52:13;100725.78;;;17.29;61.77
48942;BME280;35340;52.378;4.648;2022-10-15T00:54:43;100724.03;;;17.30;62.08
48942;BME280;35340;52.378;4.648;2022-10-15T00:57:12;100725.78;;;17.29;61.65
48942;BME280;35340;52.378;4.648;2022-10-15T00:59:40;100727.50;;;17.30;61.78
48942;BME280;35340;52.378;4.648;2022-10-15T01:02:08;100727.50;;;17.30;61.79
48942;BME280;35340;52.378;4.648;2022-10-15T01:04:35;100726.63;;;17.31;62.12
48942;BME280;35340;52.378;4.648;2022-10-15T01:07:00;100721.44;;;17.30;61.67
48942;BME280;35340;52.378;4.648;2022-10-15T01:09:26;100727.50;;;17.30;61.86
48942;BME280;35340;52.378;4.648;2022-10-15T01:11:54;100721.41;;;17.31;61.78
48942;BME280;35340;52.378;4.648;2022-10-15T01:27:56;100706.69;;;17.28;61.79
48942;BME280;35340;52.378;4.648;2022-10-15T01:35:56;100706.69;;;17.30;61.98
48942;BME280;35340;52.378;4.648;2022-10-15T01:38:29;100692.81;;;17.28;61.61
48942;BME280;35340;52.378;4.648;2022-10-15T01:46:36;100689.38;;;17.27;61.70
48942;BME280;35340;52.378;4.648;2022-10-15T01:49:03;100686.78;;;17.27;61.67
48942;BME280;35340;52.378;4.648;2022-10-15T01:51:30;100681.56;;;17.29;61.76
48942;BME280;35340;52.378;4.648;2022-10-15T01:53:58;100678.97;;;17.27;61.60
48942;BME280;35340;52.378;4.648;2022-10-15T01:56:29;100676.38;;;17.27;61.77
48942;BME280;35340;52.378;4.648;2022-10-15T01:58:56;100673.78;;;17.26;61.87
48942;BME280;35340;52.378;4.648;2022-10-15T02:01:22;100672.88;;;17.28;61.66
48942;BME280;35340;52.378;4.648;2022-10-15T02:03:49;100673.78;;;17.27;61.78
48942;BME280;35340;52.378;4.648;2022-10-15T02:06:36;100672.91;;;17.27;61.83
48942;BME280;35340;52.378;4.648;2022-10-15T02:12:37;100667.69;;;17.28;61.83
48942;BME280;35340;52.378;4.648;2022-10-15T02:18:14;100659.91;;;17.27;61.82
48942;BME280;35340;52.378;4.648;2022-10-15T02:20:58;100654.72;;;17.27;61.69
48942;BME280;35340;52.378;4.648;2022-10-15T02:23:30;100655.56;;;17.27;61.44
48942;BME280;35340;52.378;4.648;2022-10-15T02:25:58;100652.97;;;17.27;61.44
48942;BME280;35340;52.378;4.648;2022-10-15T02:28:26;100649.50;;;17.27;61.74
48942;BME280;35340;52.378;4.648;2022-10-15T02:30:54;100649.50;;;17.27;61.63
48942;BME280;35340;52.378;4.648;2022-10-15T02:33:23;100646.03;;;17.26;61.65
48942;BME280;35340;52.378;4.648;2022-10-15T02:35:50;100654.66;;;17.28;61.88
48942;BME280;35340;52.378;4.648;2022-10-15T02:38:18;100646.00;;;17.28;61.94
48942;BME280;35340;52.378;4.648;2022-10-15T02:40:45;100642.56;;;17.26;61.90
48942;BME280;35340;52.378;4.648;2022-10-15T02:43:13;100640.81;;;17.26;61.60
48942;BME280;35340;52.378;4.648;2022-10-15T02:45:38;100641.66;;;17.28;61.79
48942;BME280;35340;52.378;4.648;2022-10-15T02:48:04;100633.88;;;17.28;61.88
48942;BME280;35340;52.378;4.648;2022-10-15T02:50:31;100633.88;;;17.28;61.50
48942;BME280;35340;52.378;4.648;2022-10-15T02:52:56;100623.47;;;17.28;61.71
48942;BME280;35340;52.378;4.648;2022-10-15T02:55:21;100620.00;;;17.28;61.81
48942;BME280;35340;52.378;4.648;2022-10-15T02:57:47;100626.09;;;17.27;61.77
48942;BME280;35340;52.378;4.648;2022-10-15T03:00:12;100623.50;;;17.27;61.59
48942;BME280;35340;52.378;4.648;2022-10-15T03:02:38;100622.59;;;17.28;61.93
48942;BME280;35340;52.378;4.648;2022-10-15T03:05:04;100624.34;;;17.27;61.86
48942;BME280;35340;52.378;4.648;2022-10-15T03:07:29;100623.50;;;17.27;61.83
48942;BME280;35340;52.378;4.648;2022-10-15T03:09:54;100617.41;;;17.26;61.62
48942;BME280;35340;52.378;4.648;2022-10-15T03:12:20;100619.16;;;17.27;61.76
48942;BME280;35340;52.378;4.648;2022-10-15T03:14:48;100620.84;;;17.28;61.67
48942;BME280;35340;52.378;4.648;2022-10-15T03:17:13;100612.22;;;17.26;61.90
48942;BME280;35340;52.378;4.648;2022-10-15T03:19:39;100616.56;;;17.27;61.73
48942;BME280;35340;52.378;4.648;2022-10-15T03:22:04;100613.09;;;17.27;61.74
48942;BME280;35340;52.378;4.648;2022-10-15T03:24:29;100613.06;;;17.28;61.58
48942;BME280;35340;52.378;4.648;2022-10-15T03:26:55;100615.69;;;17.27;61.74
48942;BME280;35340;52.378;4.648;2022-10-15T03:29:20;100610.50;;;17.27;61.93
48942;BME280;35340;52.378;4.648;2022-10-15T03:31:45;100620.00;;;17.28;61.66
48942;BME280;35340;52.378;4.648;2022-10-15T03:34:11;100614.81;;;17.28;61.98
48942;BME280;35340;52.378;4.648;2022-10-15T03:36:36;100613.09;;;17.27;61.73
48942;BME280;35340;52.378;4.648;2022-10-15T03:39:02;100614.81;;;17.26;61.69
48942;BME280;35340;52.378;4.648;2022-10-15T03:41:27;100613.97;;;17.26;61.64
48942;BME280;35340;52.378;4.648;2022-10-15T03:43:52;100611.38;;;17.26;61.69
48942;BME280;35340;52.378;4.648;2022-10-15T03:46:18;100610.50;;;17.27;61.70
48942;BME280;35340;52.378;4.648;2022-10-15T03:48:47;100610.50;;;17.27;61.89
48942;BME280;35340;52.378;4.648;2022-10-15T03:51:16;100611.34;;;17.27;61.73
48942;BME280;35340;52.378;4.648;2022-10-15T03:53:41;100611.38;;;17.26;61.76
48942;BME280;35340;52.378;4.648;2022-10-15T03:56:07;100614.81;;;17.26;61.71
48942;BME280;35340;52.378;4.648;2022-10-15T03:58:32;100604.44;;;17.25;61.72
48942;BME280;35340;52.378;4.648;2022-10-15T04:00:58;100603.56;;;17.24;61.92
48942;BME280;35340;52.378;4.648;2022-10-15T04:03:23;100606.16;;;17.26;61.76
48942;BME280;35340;52.378;4.648;2022-10-15T04:05:52;100611.34;;;17.27;61.65
48942;BME280;35340;52.378;4.648;2022-10-15T04:08:18;100613.09;;;17.27;61.67
48942;BME280;35340;52.378;4.648;2022-10-15T04:10:43;100619.16;;;17.26;61.66
48942;BME280;35340;52.378;4.648;2022-10-15T04:13:09;100612.22;;;17.26;61.70
48942;BME280;35340;52.378;4.648;2022-10-15T04:15:38;100613.09;;;17.25;61.54
48942;BME280;35340;52.378;4.648;2022-10-15T04:18:03;100608.75;;;17.26;61.53
48942;BME280;35340;52.378;4.648;2022-10-15T04:20:29;100613.97;;;17.26;61.45
48942;BME280;35340;52.378;4.648;2022-10-15T04:22:55;100626.97;;;17.27;61.71
48942;BME280;35340;52.378;4.648;2022-10-15T04:25:20;100620.91;;;17.25;61.59
48942;BME280;35340;52.378;4.648;2022-10-15T04:27:46;100614.84;;;17.25;61.61
48942;BME280;35340;52.378;4.648;2022-10-15T04:30:11;100620.91;;;17.27;61.76
48942;BME280;35340;52.378;4.648;2022-10-15T04:32:37;100613.09;;;17.25;61.80
48942;BME280;35340;52.378;4.648;2022-10-15T04:35:03;100612.25;;;17.25;61.62
48942;BME280;35340;52.378;4.648;2022-10-15T04:37:32;100607.91;;;17.25;61.62
48942;BME280;35340;52.378;4.648;2022-10-15T04:39:57;100605.31;;;17.25;61.64
48942;BME280;35340;52.378;4.648;2022-10-15T04:42:22;100607.91;;;17.25;61.79
48942;BME280;35340;52.378;4.648;2022-10-15T04:44:48;100615.72;;;17.25;61.85
48942;BME280;35340;52.378;4.648;2022-10-15T04:47:13;100613.97;;;17.26;61.64
48942;BME280;35340;52.378;4.648;2022-10-15T04:49:38;100607.91;;;17.25;61.52
48942;BME280;35340;52.378;4.648;2022-10-15T04:52:04;100601.84;;;17.25;61.62
48942;BME280;35340;52.378;4.648;2022-10-15T04:54:29;100605.31;;;17.24;61.63
48942;BME280;35340;52.378;4.648;2022-10-15T04:56:54;100604.44;;;17.25;61.71
48942;BME280;35340;52.378;4.648;2022-10-15T04:59:20;100608.75;;;17.26;61.74
48942;BME280;35340;52.378;4.648;2022-10-15T05:01:45;100600.97;;;17.24;61.75
48942;BME280;35340;52.378;4.648;2022-10-15T05:04:11;100597.50;;;17.24;61.77
48942;BME280;35340;52.378;4.648;2022-10-15T05:06:36;100594.06;;;17.23;61.47
48942;BME280;35340;52.378;4.648;2022-10-15T05:09:02;100591.47;;;17.23;61.84
48942;BME280;35340;52.378;4.648;2022-10-15T05:11:28;100591.47;;;17.23;61.62
48942;BME280;35340;52.378;4.648;2022-10-15T05:13:55;100594.94;;;17.22;61.84
48942;BME280;35340;52.378;4.648;2022-10-15T05:16:23;100597.56;;;17.22;61.67
48942;BME280;35340;52.378;4.648;2022-10-15T05:18:51;100599.28;;;17.22;61.54
48942;BME280;35340;52.378;4.648;2022-10-15T05:21:17;100600.16;;;17.22;61.60
48942;BME280;35340;52.378;4.648;2022-10-15T05:23:43;100600.16;;;17.22;61.68
48942;BME280;35340;52.378;4.648;2022-10-15T05:26:12;100592.38;;;17.21;61.64
48942;BME280;35340;52.378;4.648;2022-10-15T05:28:38;100591.47;;;17.22;61.60
48942;BME280;35340;52.378;4.648;2022-10-15T05:31:09;100591.47;;;17.22;61.76
48942;BME280;35340;52.378;4.648;2022-10-15T05:33:34;100594.94;;;17.22;61.59
48942;BME280;35340;52.378;4.648;2022-10-15T05:38:34;100594.06;;;17.22;61.71
48942;BME280;35340;52.378;4.648;2022-10-15T05:41:00;100583.66;;;17.22;61.71
48942;BME280;35340;52.378;4.648;2022-10-15T05:43:25;100595.81;;;17.21;61.66
48942;BME280;35340;52.378;4.648;2022-10-15T05:45:55;100597.56;;;17.22;61.65
48942;BME280;35340;52.378;4.648;2022-10-15T05:48:20;100592.34;;;17.22;61.63
48942;BME280;35340;52.378;4.648;2022-10-15T05:50:46;100603.59;;;17.23;61.71
48942;BME280;35340;52.378;4.648;2022-10-15T05:53:11;100601.84;;;17.23;61.81
48942;BME280;35340;52.378;4.648;2022-10-15T05:55:37;100599.25;;;17.23;61.77
48942;BME280;35340;52.378;4.648;2022-10-15T05:58:03;100599.25;;;17.23;61.88
48942;BME280;35340;52.378;4.648;2022-10-15T06:00:28;100603.56;;;17.24;61.67
48942;BME280;35340;52.378;4.648;2022-10-15T06:02:54;100599.25;;;17.23;61.81
48942;BME280;35340;52.378;4.648;2022-10-15T06:05:19;100594.94;;;17.22;61.73
48942;BME280;35340;52.378;4.648;2022-10-15T06:07:44;100588.88;;;17.22;61.75
48942;BME280;35340;52.378;4.648;2022-10-15T06:10:10;100589.72;;;17.24;61.78
48942;BME280;35340;52.378;4.648;2022-10-15T06:12:35;100589.72;;;17.24;61.76
48942;BME280;35340;52.378;4.648;2022-10-15T06:15:02;100583.66;;;17.25;61.81
48942;BME280;35340;52.378;4.648;2022-10-15T06:17:28;100578.44;;;17.25;61.71
48942;BME280;35340;52.378;4.648;2022-10-15T06:19:53;100578.44;;;17.25;61.43
48942;BME280;35340;52.378;4.648;2022-10-15T06:22:19;100574.09;;;17.25;61.62
48942;BME280;35340;52.378;4.648;2022-10-15T06:24:44;100574.97;;;17.24;61.81
48942;BME280;35340;52.378;4.648;2022-10-15T06:27:09;100570.66;;;17.25;61.69
48942;BME280;35340;52.378;4.648;2022-10-15T06:29:35;100574.09;;;17.25;61.95
48942;BME280;35340;52.378;4.648;2022-10-15T06:32:01;100575.81;;;17.26;61.84
48942;BME280;35340;52.378;4.648;2022-10-15T06:34:26;100569.75;;;17.26;62.05
48942;BME280;35340;52.378;4.648;2022-10-15T06:36:52;100567.13;;;17.27;61.93
48942;BME280;35340;52.378;4.648;2022-10-15T06:39:17;100579.28;;;17.27;62.00
48942;BME280;35340;52.378;4.648;2022-10-15T06:41:43;100578.38;;;17.30;61.86
48942;BME280;35340;52.378;4.648;2022-10-15T06:44:08;100580.16;;;17.27;62.06
48942;BME280;35340;52.378;4.648;2022-10-15T06:46:33;100581.84;;;17.28;61.97
48942;BME280;35340;52.378;4.648;2022-10-15T06:48:59;100579.25;;;17.28;61.80
48942;BME280;35340;52.378;4.648;2022-10-15T06:51:24;100578.38;;;17.30;61.83
48942;BME280;35340;52.378;4.648;2022-10-15T06:53:50;100581.84;;;17.30;62.06
48942;BME280;35340;52.378;4.648;2022-10-15T06:56:15;100575.72;;;17.36;61.91
48942;BME280;35340;52.378;4.648;2022-10-15T06:58:41;100575.66;;;17.39;61.69
48942;BME280;35340;52.378;4.648;2022-10-15T07:01:07;100573.06;;;17.37;62.01
48942;BME280;35340;52.378;4.648;2022-10-15T07:03:34;100578.31;;;17.36;62.09
48942;BME280;35340;52.378;4.648;2022-10-15T07:06:01;100578.31;;;17.36;61.93
48942;BME280;35340;52.378;4.648;2022-10-15T07:08:27;100584.31;;;17.39;61.95
48942;BME280;35340;52.378;4.648;2022-10-15T07:10:53;100577.34;;;17.43;61.99
48942;BME280;35340;52.378;4.648;2022-10-15T07:13:18;100574.75;;;17.41;61.85
48942;BME280;35340;52.378;4.648;2022-10-15T07:15:43;100573.00;;;17.42;62.10
48942;BME280;35340;52.378;4.648;2022-10-15T07:18:10;100573.00;;;17.42;61.89
48942;BME280;35340;52.378;4.648;2022-10-15T07:20:35;100581.69;;;17.42;62.06
48942;BME280;35340;52.378;4.648;2022-10-15T07:23:01;100575.59;;;17.43;61.96
48942;BME280;35340;52.378;4.648;2022-10-15T07:25:27;100572.09;;;17.46;61.85
48942;BME280;35340;52.378;4.648;2022-10-15T07:27:53;100573.00;;;17.45;61.96
48942;BME280;35340;52.378;4.648;2022-10-15T07:30:20;100575.56;;;17.46;61.89
48942;BME280;35340;52.378;4.648;2022-10-15T07:32:45;100573.00;;;17.45;61.99
48942;BME280;35340;52.378;4.648;2022-10-15T07:35:11;100573.84;;;17.45;62.06
48942;BME280;35340;52.378;4.648;2022-10-15T07:37:36;100576.44;;;17.44;61.70
48942;BME280;35340;52.378;4.648;2022-10-15T07:40:02;100566.94;;;17.44;62.08
48942;BME280;35340;52.378;4.648;2022-10-15T07:42:27;100578.19;;;17.45;61.93
48942;BME280;35340;52.378;4.648;2022-10-15T07:44:52;100566.94;;;17.44;61.86
48942;BME280;35340;52.378;4.648;2022-10-15T07:47:18;100571.25;;;17.45;61.80
48942;BME280;35340;52.378;4.648;2022-10-15T07:49:43;100563.44;;;17.44;61.97
48942;BME280;35340;52.378;4.648;2022-10-15T07:52:09;100557.38;;;17.43;61.98
48942;BME280;35340;52.378;4.648;2022-10-15T07:54:34;100554.78;;;17.43;61.83
48942;BME280;35340;52.378;4.648;2022-10-15T07:57:00;100559.94;;;17.48;61.70
48942;BME280;35340;52.378;4.648;2022-10-15T07:59:25;100572.06;;;17.47;61.71
48942;BME280;35340;52.378;4.648;2022-10-15T08:01:51;100566.03;;;17.47;61.77
48942;BME280;35340;52.378;4.648;2022-10-15T08:04:16;100573.81;;;17.47;61.93
48942;BME280;35340;52.378;4.648;2022-10-15T08:06:42;100574.69;;;17.46;62.16
48942;BME280;35340;52.378;4.648;2022-10-15T08:09:07;100576.44;;;17.47;62.11
48942;BME280;35340;52.378;4.648;2022-10-15T08:11:33;100581.63;;;17.48;62.04
48942;BME280;35340;52.378;4.648;2022-10-15T08:13:58;100579.03;;;17.48;62.06
48942;BME280;35340;52.378;4.648;2022-10-15T08:16:23;100573.81;;;17.48;62.11
48942;BME280;35340;52.378;4.648;2022-10-15T08:18:49;100570.34;;;17.48;62.17
48942;BME280;35340;52.378;4.648;2022-10-15T08:21:14;100569.47;;;17.47;62.16
48942;BME280;35340;52.378;4.648;2022-10-15T08:23:40;100573.81;;;17.47;62.14
48942;BME280;35340;52.378;4.648;2022-10-15T08:26:05;100576.44;;;17.47;62.12
48942;BME280;35340;52.378;4.648;2022-10-15T08:28:32;100572.97;;;17.46;62.05
48942;BME280;35340;52.378;4.648;2022-10-15T08:30:59;100569.50;;;17.46;62.09
48942;BME280;35340;52.378;4.648;2022-10-15T08:33:25;100566.88;;;17.46;62.12
48942;BME280;35340;52.378;4.648;2022-10-15T08:35:51;100572.97;;;17.46;62.04
48942;BME280;35340;52.378;4.648;2022-10-15T08:38:16;100563.44;;;17.47;61.97
48942;BME280;35340;52.378;4.648;2022-10-15T08:40:47;100559.06;;;17.47;62.05
48942;BME280;35340;52.378;4.648;2022-10-15T08:43:23;100547.81;;;17.48;61.85
48942;BME280;35340;52.378;4.648;2022-10-15T08:45:53;100555.56;;;17.50;62.15
48942;BME280;35340;52.378;4.648;2022-10-15T08:48:28;100546.91;;;17.51;61.88
48942;BME280;35340;52.378;4.648;2022-10-15T08:51:18;100549.44;;;17.53;61.73
48942;BME280;35340;52.378;4.648;2022-10-15T08:53:48;100550.34;;;17.52;62.01
48942;BME280;35340;52.378;4.648;2022-10-15T08:56:20;100545.16;;;17.52;61.66
48942;BME280;35340;52.378;4.648;2022-10-15T09:01:50;100545.16;;;17.52;61.82
48942;BME280;35340;52.378;4.648;2022-10-15T09:04:29;100550.34;;;17.53;62.12
48942;BME280;35340;52.378;4.648;2022-10-15T09:07:09;100540.78;;;17.52;62.08
48942;BME280;35340;52.378;4.648;2022-10-15T09:10:00;100534.72;;;17.53;61.89
48942;BME280;35340;52.378;4.648;2022-10-15T09:13:04;100532.06;;;17.56;61.70
48942;BME280;35340;52.378;4.648;2022-10-15T09:15:38;100537.28;;;17.56;61.79
48942;BME280;35340;52.378;4.648;2022-10-15T09:18:04;100529.44;;;17.58;61.67
48942;BME280;35340;52.378;4.648;2022-10-15T09:20:35;100520.78;;;17.57;61.73
48942;BME280;35340;52.378;4.648;2022-10-15T09:23:02;100533.81;;;17.57;62.01
48942;BME280;35340;52.378;4.648;2022-10-15T09:25:34;100531.22;;;17.56;61.81
48942;BME280;35340;52.378;4.648;2022-10-15T09:28:07;100524.25;;;17.56;61.66
48942;BME280;35340;52.378;4.648;2022-10-15T09:30:50;100517.31;;;17.57;61.75
48942;BME280;35340;52.378;4.648;2022-10-15T09:33:45;100515.59;;;17.57;61.78
48942;BME280;35340;52.378;4.648;2022-10-15T09:36:21;100513.81;;;17.59;61.71
48942;BME280;35340;52.378;4.648;2022-10-15T09:41:39;100511.16;;;17.62;61.65
48942;BME280;35340;52.378;4.648;2022-10-15T09:44:11;100518.91;;;17.65;61.65
48942;BME280;35340;52.378;4.648;2022-10-15T09:46:46;100511.16;;;17.64;61.50
48942;BME280;35340;52.378;4.648;2022-10-15T09:49:13;100513.75;;;17.64;61.63
48942;BME280;35340;52.378;4.648;2022-10-15T09:57:07;100500.75;;;17.64;61.46
48942;BME280;35340;52.378;4.648;2022-10-15T09:59:33;100494.66;;;17.63;61.35
48942;BME280;35340;52.378;4.648;2022-10-15T10:02:01;100493.81;;;17.63;61.46
48942;BME280;35340;52.378;4.648;2022-10-15T10:04:32;100486.91;;;17.62;61.40
48942;BME280;35340;52.378;4.648;2022-10-15T10:07:03;100484.28;;;17.62;61.37
48942;BME280;35340;52.378;4.648;2022-10-15T10:09:32;100483.41;;;17.63;61.48
48942;BME280;35340;52.378;4.648;2022-10-15T10:12:00;100490.34;;;17.62;61.28
48942;BME280;35340;52.378;4.648;2022-10-15T10:14:51;100484.28;;;17.62;61.63
48942;BME280;35340;52.378;4.648;2022-10-15T10:17:22;100499.00;;;17.63;61.38
48942;BME280;35340;52.378;4.648;2022-10-15T10:20:12;100492.09;;;17.62;61.36
48942;BME280;35340;52.378;4.648;2022-10-15T10:22:45;100494.72;;;17.62;61.40
48942;BME280;35340;52.378;4.648;2022-10-15T10:27:57;100494.72;;;17.60;61.33
48942;BME280;35340;52.378;4.648;2022-10-15T10:30:23;100487.78;;;17.61;61.68
48942;BME280;35340;52.378;4.648;2022-10-15T10:32:55;100485.16;;;17.61;61.36
48942;BME280;35340;52.378;4.648;2022-10-15T10:35:23;100476.50;;;17.62;61.35
48942;BME280;35340;52.378;4.648;2022-10-15T10:37:49;100472.97;;;17.64;61.09
48942;BME280;35340;52.378;4.648;2022-10-15T10:40:26;100469.47;;;17.67;61.46
48942;BME280;35340;52.378;4.648;2022-10-15T10:43:20;100471.16;;;17.69;61.37
48942;BME280;35340;52.378;4.648;2022-10-15T10:48:50;100477.22;;;17.70;61.36
48942;BME280;35340;52.378;4.648;2022-10-15T10:56:27;100480.78;;;17.66;61.46
48942;BME280;35340;52.378;4.648;2022-10-15T10:59:17;100479.03;;;17.63;61.48
48942;BME280;35340;52.378;4.648;2022-10-15T11:01:42;100478.19;;;17.64;61.30
48942;BME280;35340;52.378;4.648;2022-10-15T11:04:12;100465.16;;;17.64;61.30
48942;BME280;35340;52.378;4.648;2022-10-15T11:09:22;100469.53;;;17.64;61.27
48942;BME280;35340;52.378;4.648;2022-10-15T11:17:22;100457.38;;;17.64;61.32
48942;BME280;35340;52.378;4.648;2022-10-15T11:19:58;100459.13;;;17.64;61.27
48942;BME280;35340;52.378;4.648;2022-10-15T11:27:44;100455.56;;;17.68;61.06
48942;BME280;35340;52.378;4.648;2022-10-15T11:30:32;100456.38;;;17.70;61.29
48942;BME280;35340;52.378;4.648;2022-10-15T11:33:18;100454.69;;;17.67;61.29
48942;BME280;35340;52.378;4.648;2022-10-15T11:38:46;100459.00;;;17.70;61.18
48942;BME280;35340;52.378;4.648;2022-10-15T11:44:03;100466.78;;;17.72;61.25
48942;BME280;35340;52.378;4.648;2022-10-15T11:54:26;100468.56;;;17.68;61.28
48942;BME280;35340;52.378;4.648;2022-10-15T11:56:56;100458.19;;;17.66;61.22
48942;BME280;35340;52.378;4.648;2022-10-15T11:59:32;100461.66;;;17.67;61.18
48942;BME280;35340;52.378;4.648;2022-10-15T12:02:09;100464.25;;;17.67;61.28
48942;BME280;35340;52.378;4.648;2022-10-15T12:04:55;100460.75;;;17.68;61.30
48942;BME280;35340;52.378;4.648;2022-10-15T12:07:27;100454.69;;;17.67;61.07
48942;BME280;35340;52.378;4.648;2022-10-15T12:10:05;100465.16;;;17.66;61.16
48942;BME280;35340;52.378;4.648;2022-10-15T12:13:01;100472.09;;;17.65;61.16
48942;BME280;35340;52.378;4.648;2022-10-15T12:15:43;100471.22;;;17.65;60.99
48942;BME280;35340;52.378;4.648;2022-10-15T12:20:53;100470.38;;;17.64;61.38
48942;BME280;35340;52.378;4.648;2022-10-15T12:28:49;100473.84;;;17.65;61.09
48942;BME280;35340;52.378;4.648;2022-10-15T12:31:15;100479.03;;;17.65;61.17
48942;BME280;35340;52.378;4.648;2022-10-15T12:33:54;100475.56;;;17.66;61.37
48942;BME280;35340;52.378;4.648;2022-10-15T12:36:28;100476.44;;;17.65;61.22
48942;BME280;35340;52.378;4.648;2022-10-15T12:39:05;100477.28;;;17.67;61.04
48942;BME280;35340;52.378;4.648;2022-10-15T12:41:38;100476.38;;;17.68;61.11
48942;BME280;35340;52.378;4.648;2022-10-15T12:46:38;100452.00;;;17.74;61.21
48942;BME280;35340;52.378;4.648;2022-10-15T12:51:51;100449.41;;;17.74;61.09
48942;BME280;35340;52.378;4.648;2022-10-15T12:54:37;100457.19;;;17.75;60.96
48942;BME280;35340;52.378;4.648;2022-10-15T13:00:30;100467.53;;;17.78;61.13
48942;BME280;35340;52.378;4.648;2022-10-15T13:03:06;100466.69;;;17.78;61.05
48942;BME280;35340;52.378;4.648;2022-10-15T13:05:34;100474.50;;;17.78;60.99
48942;BME280;35340;52.378;4.648;2022-10-15T13:08:03;100476.19;;;17.79;60.95
48942;BME280;35340;52.378;4.648;2022-10-15T13:10:36;100471.91;;;17.78;61.14
48942;BME280;35340;52.378;4.648;2022-10-15T13:13:05;100471.00;;;17.79;60.95
48942;BME280;35340;52.378;4.648;2022-10-15T13:15:33;100462.31;;;17.80;60.84
48942;BME280;35340;52.378;4.648;2022-10-15T13:18:05;100467.50;;;17.81;61.02
48942;BME280;35340;52.378;4.648;2022-10-15T13:20:36;100480.53;;;17.81;61.13
48942;BME280;35340;52.378;4.648;2022-10-15T13:23:13;100487.44;;;17.81;60.98
48942;BME280;35340;52.378;4.648;2022-10-15T13:25:40;100490.94;;;17.80;60.93
48942;BME280;35340;52.378;4.648;2022-10-15T13:28:28;100490.94;;;17.80;61.10
48942;BME280;35340;52.378;4.648;2022-10-15T13:30:55;100496.13;;;17.81;60.97
48942;BME280;35340;52.378;4.648;2022-10-15T13:33:20;100494.41;;;17.80;60.92
48942;BME280;35340;52.378;4.648;2022-10-15T13:35:46;100487.44;;;17.81;61.04
48942;BME280;35340;52.378;4.648;2022-10-15T13:38:23;100490.06;;;17.82;61.08
48942;BME280;35340;52.378;4.648;2022-10-15T13:40:50;100498.75;;;17.81;60.97
48942;BME280;35340;52.378;4.648;2022-10-15T13:43:26;100497.00;;;17.80;61.08
48942;BME280;35340;52.378;4.648;2022-10-15T13:45:57;100498.75;;;17.80;61.02
48942;BME280;35340;52.378;4.648;2022-10-15T13:48:28;100500.50;;;17.79;61.07
48942;BME280;35340;52.378;4.648;2022-10-15T13:50:59;100503.94;;;17.81;61.20
48942;BME280;35340;52.378;4.648;2022-10-15T13:53:28;100506.53;;;17.83;61.11
48942;BME280;35340;52.378;4.648;2022-10-15T13:55:57;100505.66;;;17.84;61.20
48942;BME280;35340;52.378;4.648;2022-10-15T13:58:34;100505.63;;;17.85;61.09
48942;BME280;35340;52.378;4.648;2022-10-15T14:01:19;100507.44;;;17.83;61.00
48942;BME280;35340;52.378;4.648;2022-10-15T14:03:50;100506.53;;;17.83;60.95
48942;BME280;35340;52.378;4.648;2022-10-15T14:08:50;100509.16;;;17.80;61.03
48942;BME280;35340;52.378;4.648;2022-10-15T14:11:16;100515.22;;;17.80;61.22
48942;BME280;35340;52.378;4.648;2022-10-15T14:14:01;100523.03;;;17.80;61.09
48942;BME280;35340;52.378;4.648;2022-10-15T14:16:30;100522.19;;;17.80;61.17
48942;BME280;35340;52.378;4.648;2022-10-15T14:21:32;100528.25;;;17.80;61.18
48942;BME280;35340;52.378;4.648;2022-10-15T14:26:38;100525.66;;;17.82;61.01
48942;BME280;35340;52.378;4.648;2022-10-15T14:29:04;100534.31;;;17.82;61.20
48942;BME280;35340;52.378;4.648;2022-10-15T14:31:38;100536.94;;;17.82;61.09
48942;BME280;35340;52.378;4.648;2022-10-15T14:34:04;100540.38;;;17.83;61.11
48942;BME280;35340;52.378;4.648;2022-10-15T14:36:31;100541.25;;;17.83;60.99
48942;BME280;35340;52.378;4.648;2022-10-15T14:39:30;100539.53;;;17.82;61.12
48942;BME280;35340;52.378;4.648;2022-10-15T14:42:01;100544.72;;;17.82;60.96
48942;BME280;35340;52.378;4.648;2022-10-15T14:44:44;100554.28;;;17.83;60.92
48942;BME280;35340;52.378;4.648;2022-10-15T14:47:23;100554.28;;;17.83;61.03
48942;BME280;35340;52.378;4.648;2022-10-15T14:49:53;100553.41;;;17.83;61.02